createdAt,value
2019-04-06T00:02:14.847Z,9.74
2019-04-06T00:04:46.166Z,9.67
2019-04-06T00:07:16.486Z,9.67
2019-04-06T00:09:45.140Z,9.65
2019-04-06T00:12:13.821Z,9.48
2019-04-06T00:14:42.452Z,9.37
2019-04-06T00:17:11.098Z,9.17
2019-04-06T00:19:39.733Z,9.04
2019-04-06T00:22:08.355Z,9.09
2019-04-06T00:24:36.986Z,8.91
2019-04-06T00:27:05.619Z,8.81
2019-04-06T00:29:34.229Z,8.96
2019-04-06T00:32:09.999Z,9.02
2019-04-06T00:34:38.600Z,9.00
2019-04-06T00:37:07.299Z,9.02
2019-04-06T00:39:36.399Z,9.07
2019-04-06T00:42:05.114Z,9.14
2019-04-06T00:44:33.751Z,9.14
2019-04-06T00:47:02.422Z,9.16
2019-04-06T00:49:31.131Z,9.01
2019-04-06T00:51:59.756Z,9.02
2019-04-06T00:54:28.387Z,9.08
2019-04-06T00:56:57.131Z,9.09
2019-04-06T00:59:25.840Z,9.11
2019-04-06T01:01:54.465Z,8.94
2019-04-06T01:04:23.141Z,9.09
2019-04-06T01:06:54.337Z,9.28
2019-04-06T01:09:23.000Z,9.41
2019-04-06T01:11:51.664Z,9.45
2019-04-06T01:14:20.305Z,9.50
2019-04-06T01:16:49.011Z,9.53
2019-04-06T01:19:17.649Z,9.53
2019-04-06T01:21:46.289Z,9.59
2019-04-06T01:24:14.909Z,9.60
2019-04-06T01:26:43.525Z,9.58
2019-04-06T01:29:12.143Z,9.53
2019-04-06T01:31:40.759Z,9.48
2019-04-06T01:34:09.482Z,9.57
2019-04-06T01:36:38.184Z,9.62
2019-04-06T01:39:07.004Z,9.65
2019-04-06T01:41:35.648Z,9.65
2019-04-06T01:44:04.405Z,9.69
2019-04-06T01:46:32.984Z,9.65
2019-04-06T01:49:01.728Z,9.64
2019-04-06T01:51:31.408Z,9.79
2019-04-06T01:54:00.084Z,9.71
2019-04-06T01:56:28.703Z,9.62
2019-04-06T01:58:57.341Z,9.61
2019-04-06T02:01:48.003Z,9.70
2019-04-06T02:04:16.629Z,9.75
2019-04-06T02:06:45.397Z,9.70
2019-04-06T02:09:13.998Z,9.73
2019-04-06T02:11:42.633Z,9.67
2019-04-06T02:14:11.278Z,9.64
2019-04-06T02:16:39.913Z,9.62
2019-04-06T02:19:08.562Z,9.52
2019-04-06T02:21:37.176Z,9.44
2019-04-06T02:24:05.896Z,9.34
2019-04-06T02:26:34.555Z,9.46
2019-04-06T02:29:03.361Z,9.52
2019-04-06T02:31:49.573Z,9.37
2019-04-06T02:34:37.238Z,9.30
2019-04-06T02:37:25.831Z,9.40
2019-04-06T02:40:16.267Z,9.45
2019-04-06T02:42:51.060Z,9.38
2019-04-06T02:45:19.769Z,9.29
2019-04-06T02:47:48.489Z,9.31
2019-04-06T02:50:17.200Z,9.24
2019-04-06T02:52:45.841Z,9.21
2019-04-06T02:55:14.560Z,9.09
2019-04-06T02:57:43.209Z,9.08
2019-04-06T03:00:13.455Z,9.02
2019-04-06T03:02:42.124Z,9.00
2019-04-06T03:05:10.969Z,8.99
2019-04-06T03:07:39.720Z,8.95
2019-04-06T03:10:08.417Z,8.92
2019-04-06T03:12:37.127Z,8.92
2019-04-06T03:15:05.989Z,8.88
2019-04-06T03:17:34.624Z,8.84
2019-04-06T03:20:03.511Z,8.85
2019-04-06T03:22:32.361Z,8.78
2019-04-06T03:25:00.982Z,8.64
2019-04-06T03:27:29.743Z,8.59
2019-04-06T03:29:59.247Z,8.66
2019-04-06T03:32:28.111Z,8.61
2019-04-06T03:34:56.746Z,8.53
2019-04-06T03:37:25.380Z,8.44
2019-04-06T03:39:54.001Z,8.46
2019-04-06T03:42:22.648Z,8.40
2019-04-06T03:44:51.339Z,8.40
2019-04-06T03:47:20.000Z,8.27
2019-04-06T03:49:48.663Z,8.30
2019-04-06T03:52:17.367Z,8.25
2019-04-06T03:54:46.038Z,8.12
2019-04-06T03:57:16.903Z,8.09
2019-04-06T03:59:45.047Z,8.01
2019-04-06T04:02:13.657Z,7.92
2019-04-06T04:04:42.284Z,7.89
2019-04-06T04:07:10.921Z,7.91
2019-04-06T04:09:39.568Z,7.88
2019-04-06T04:12:08.236Z,7.75
2019-04-06T04:14:36.863Z,7.49
2019-04-06T04:17:05.564Z,7.40
2019-04-06T04:19:34.260Z,7.36
2019-04-06T04:22:02.882Z,7.31
2019-04-06T04:24:31.762Z,7.34
2019-04-06T04:27:00.312Z,7.33
2019-04-06T04:29:28.943Z,7.13
2019-04-06T04:31:57.610Z,7.18
2019-04-06T04:34:26.282Z,6.93
2019-04-06T04:36:54.990Z,6.92
2019-04-06T04:39:23.650Z,6.90
2019-04-06T04:41:52.271Z,6.87
2019-04-06T04:44:20.918Z,6.94
2019-04-06T04:46:49.618Z,6.98
2019-04-06T04:49:20.458Z,6.79
2019-04-06T04:51:49.098Z,6.68
2019-04-06T04:54:17.852Z,6.51
2019-04-06T04:56:46.470Z,6.31
2019-04-06T04:59:15.127Z,6.25
2019-04-06T05:01:43.939Z,6.40
2019-04-06T05:04:12.576Z,6.42
2019-04-06T05:06:41.189Z,6.33
2019-04-06T05:09:09.850Z,6.36
2019-04-06T05:11:38.469Z,6.40
2019-04-06T05:14:56.147Z,6.36
2019-04-06T05:17:24.843Z,6.37
2019-04-06T05:19:53.510Z,6.26
2019-04-06T05:22:22.127Z,6.20
2019-04-06T05:24:50.890Z,6.24
2019-04-06T05:27:19.644Z,6.17
2019-04-06T05:29:48.289Z,6.20
2019-04-06T05:32:16.908Z,6.22
2019-04-06T05:34:45.566Z,6.25
2019-04-06T05:37:14.211Z,6.14
2019-04-06T05:39:42.909Z,6.09
2019-04-06T05:42:11.564Z,6.01
2019-04-06T05:44:40.239Z,6.00
2019-04-06T05:47:08.902Z,6.02
2019-04-06T05:49:37.565Z,6.09
2019-04-06T05:52:06.369Z,6.04
2019-04-06T05:54:35.003Z,5.96
2019-04-06T05:57:06.623Z,6.00
2019-04-06T05:59:35.278Z,6.14
2019-04-06T06:02:07.855Z,6.30
2019-04-06T06:05:00.843Z,6.39
2019-04-06T06:07:44.262Z,6.48
2019-04-06T06:10:14.911Z,6.57
2019-04-06T06:12:47.848Z,6.61
2019-04-06T06:15:19.873Z,6.69
2019-04-06T06:18:03.158Z,6.73
2019-04-06T06:20:32.883Z,6.70
2019-04-06T06:23:05.165Z,6.78
2019-04-06T06:25:48.067Z,6.82
2019-04-06T06:28:19.812Z,6.92
2019-04-06T06:30:50.018Z,7.07
2019-04-06T06:33:21.945Z,7.22
2019-04-06T06:36:16.879Z,7.29
2019-04-06T06:38:48.545Z,7.31
2019-04-06T06:41:20.400Z,7.54
2019-04-06T06:43:51.710Z,7.67
2019-04-06T06:46:24.431Z,7.79
2019-04-06T06:48:57.809Z,7.87
2019-04-06T06:51:38.420Z,7.94
2019-04-06T06:54:11.285Z,7.96
2019-04-06T06:56:43.985Z,8.03
2019-04-06T06:59:16.868Z,8.25
2019-04-06T07:01:56.517Z,8.47
2019-04-06T07:04:34.675Z,8.66
2019-04-06T07:07:06.824Z,8.85
2019-04-06T07:10:05.000Z,9.06
2019-04-06T07:12:31.011Z,9.18
2019-04-06T07:15:01.265Z,9.34
2019-04-06T07:17:31.297Z,9.52
2019-04-06T07:20:01.339Z,9.55
2019-04-06T07:22:30.591Z,9.66
2019-04-06T07:25:02.715Z,9.77
2019-04-06T07:27:35.504Z,9.92
2019-04-06T07:30:05.091Z,10.10
2019-04-06T07:32:33.803Z,10.20
2019-04-06T07:35:02.536Z,10.38
2019-04-06T07:37:31.340Z,10.41
2019-04-06T07:40:00.097Z,10.49
2019-04-06T07:42:28.693Z,10.59
2019-04-06T07:44:57.444Z,10.66
2019-04-06T07:47:26.194Z,10.80
2019-04-06T07:49:54.988Z,10.97
2019-04-06T07:52:23.651Z,11.15
2019-04-06T07:54:52.614Z,11.22
2019-04-06T07:57:21.400Z,11.29
2019-04-06T07:59:50.216Z,10.95
2019-04-06T08:02:18.886Z,11.00
2019-04-06T08:04:47.551Z,10.99
2019-04-06T08:07:16.262Z,11.13
2019-04-06T08:09:45.176Z,11.15
2019-04-06T08:12:14.087Z,11.25
2019-04-06T08:14:42.727Z,11.23
2019-04-06T08:17:11.735Z,11.24
2019-04-06T08:19:40.403Z,11.36
2019-04-06T08:22:09.025Z,11.35
2019-04-06T08:24:37.750Z,11.38
2019-04-06T08:27:06.433Z,11.32
2019-04-06T08:29:35.085Z,11.39
2019-04-06T08:32:03.692Z,11.49
2019-04-06T08:34:32.375Z,11.56
2019-04-06T08:37:01.168Z,11.51
2019-04-06T08:39:30.051Z,11.54
2019-04-06T08:41:58.707Z,11.53
2019-04-06T08:44:27.338Z,11.63
2019-04-06T08:46:55.971Z,11.77
2019-04-06T08:49:24.590Z,11.82
2019-04-06T08:51:53.201Z,11.87
2019-04-06T08:54:21.937Z,11.93
2019-04-06T08:56:50.723Z,11.94
2019-04-06T08:59:19.609Z,11.96
2019-04-06T09:01:48.266Z,12.09
2019-04-06T09:04:16.955Z,12.16
2019-04-06T09:06:47.337Z,12.18
2019-04-06T09:09:15.902Z,12.27
2019-04-06T09:11:44.518Z,12.37
2019-04-06T09:14:13.235Z,12.42
2019-04-06T09:16:41.859Z,12.55
2019-04-06T09:19:10.521Z,12.56
2019-04-06T09:21:39.148Z,12.74
2019-04-06T09:24:07.802Z,12.72
2019-04-06T09:26:36.421Z,12.70
2019-04-06T09:29:05.150Z,12.80
2019-04-06T09:31:33.791Z,12.81
2019-04-06T09:34:02.518Z,12.89
2019-04-06T09:36:31.120Z,12.87
2019-04-06T09:38:59.821Z,12.95
2019-04-06T09:41:28.500Z,13.15
2019-04-06T09:43:57.277Z,13.11
2019-04-06T09:46:36.156Z,13.23
2019-04-06T09:49:27.133Z,13.26
2019-04-06T09:52:26.886Z,13.36
2019-04-06T09:55:01.085Z,13.38
2019-04-06T09:57:54.486Z,13.45
2019-04-06T10:00:35.904Z,13.52
2019-04-06T10:03:22.102Z,13.58
2019-04-06T10:06:01.897Z,13.55
2019-04-06T10:08:49.795Z,13.67
2019-04-06T10:11:55.824Z,13.87
2019-04-06T10:14:43.897Z,13.89
2019-04-06T10:17:21.390Z,14.08
2019-04-06T10:20:11.107Z,14.25
2019-04-06T10:22:58.769Z,14.34
2019-04-06T10:25:45.094Z,14.45
2019-04-06T10:28:22.625Z,14.74
2019-04-06T10:31:16.099Z,14.79
2019-04-06T10:33:55.003Z,15.04
2019-04-06T10:36:41.164Z,15.12
2019-04-06T10:39:14.131Z,15.26
2019-04-06T10:42:07.864Z,15.41
2019-04-06T10:44:54.219Z,15.40
2019-04-06T10:47:44.572Z,15.42
2019-04-06T10:50:22.640Z,15.33
2019-04-06T10:53:08.859Z,15.52
2019-04-06T10:55:53.938Z,15.78
2019-04-06T10:58:36.820Z,15.78
2019-04-06T11:01:21.918Z,16.02
2019-04-06T11:03:58.934Z,16.12
2019-04-06T11:06:52.601Z,16.19
2019-04-06T11:09:39.188Z,16.11
2019-04-06T11:12:18.035Z,16.18
2019-04-06T11:15:01.732Z,16.20
2019-04-06T11:17:49.469Z,16.31
2019-04-06T11:20:40.081Z,16.26
2019-04-06T11:23:32.157Z,16.25
2019-04-06T11:26:25.701Z,16.21
2019-04-06T11:29:07.363Z,15.99
2019-04-06T11:31:44.837Z,16.10
2019-04-06T11:34:24.846Z,16.17
2019-04-06T11:37:03.820Z,15.97
2019-04-06T11:39:46.307Z,15.93
2019-04-06T11:45:21.746Z,15.86
2019-04-06T11:48:52.287Z,15.94
2019-04-06T11:51:40.583Z,15.94
2019-04-06T11:54:31.095Z,16.08
2019-04-06T11:57:36.949Z,16.18
2019-04-06T12:00:25.513Z,16.27
2019-04-06T12:03:11.006Z,16.45
2019-04-06T12:06:07.635Z,16.52
2019-04-06T12:09:10.319Z,16.44
2019-04-06T12:12:00.753Z,16.39
2019-04-06T12:14:36.342Z,16.28
2019-04-06T12:17:16.900Z,16.44
2019-04-06T12:20:03.131Z,16.73
2019-04-06T12:22:44.649Z,16.88
2019-04-06T12:25:30.921Z,16.88
2019-04-06T12:28:14.680Z,16.98
2019-04-06T12:31:11.327Z,16.98
2019-04-06T12:33:55.974Z,16.93
2019-04-06T12:37:01.651Z,17.02
2019-04-06T12:39:52.550Z,17.07
2019-04-06T12:42:40.483Z,17.28
2019-04-06T12:45:31.630Z,17.36
2019-04-06T12:48:19.700Z,17.37
2019-04-06T12:51:13.881Z,17.51
2019-04-06T12:53:48.704Z,17.56
2019-04-06T12:56:39.236Z,17.55
2019-04-06T12:59:25.581Z,17.62
2019-04-06T13:02:14.109Z,17.80
2019-04-06T13:04:58.435Z,17.88
2019-04-06T13:07:48.474Z,17.66
2019-04-06T13:10:45.231Z,17.69
2019-04-06T13:13:42.382Z,17.46
2019-04-06T13:16:17.772Z,17.57
2019-04-06T13:18:56.465Z,17.64
2019-04-06T13:21:39.600Z,17.81
2019-04-06T13:24:30.163Z,17.86
2019-04-06T13:27:29.927Z,17.93
2019-04-06T13:30:26.356Z,18.16
2019-04-06T13:33:07.727Z,18.15
2019-04-06T13:35:49.146Z,18.26
2019-04-06T13:38:45.730Z,18.36
2019-04-06T13:41:32.570Z,18.01
2019-04-06T13:44:20.571Z,18.08
2019-04-06T13:47:08.369Z,18.18
2019-04-06T13:49:55.055Z,18.18
2019-04-06T13:52:45.554Z,17.98
2019-04-06T13:55:34.035Z,18.21
2019-04-06T13:58:22.171Z,18.46
2019-04-06T14:01:17.603Z,18.54
2019-04-06T14:04:00.019Z,18.58
2019-04-06T14:07:35.309Z,18.61
2019-04-06T14:10:27.170Z,18.26
2019-04-06T14:13:27.774Z,18.42
2019-04-06T14:16:10.073Z,18.42
2019-04-06T14:18:58.902Z,18.52
2019-04-06T14:21:51.843Z,18.44
2019-04-06T14:24:58.077Z,18.77
2019-04-06T14:27:50.398Z,18.87
2019-04-06T14:30:31.136Z,18.96
2019-04-06T14:33:20.047Z,18.96
2019-04-06T14:36:25.203Z,19.12
2019-04-06T14:39:11.978Z,18.86
2019-04-06T14:42:07.512Z,18.86
2019-04-06T14:44:54.975Z,18.91
2019-04-06T14:47:44.688Z,18.91
2019-04-06T14:50:27.332Z,18.74
2019-04-06T14:53:21.186Z,18.99
2019-04-06T14:56:14.465Z,18.99
2019-04-06T14:59:01.538Z,18.82
2019-04-06T15:01:57.888Z,18.26
2019-04-06T15:04:26.002Z,18.46
2019-04-06T15:07:21.547Z,18.46
2019-04-06T15:10:14.166Z,18.29
2019-04-06T15:13:01.541Z,18.27
2019-04-06T15:15:56.567Z,18.27
2019-04-06T15:18:49.395Z,18.27
2019-04-06T15:21:46.996Z,18.51
2019-04-06T15:24:38.040Z,18.67
2019-04-06T15:27:41.905Z,18.67
2019-04-06T15:31:12.871Z,18.80
2019-04-06T15:34:04.348Z,18.79
2019-04-06T15:40:08.674Z,18.70
2019-04-06T15:42:48.101Z,18.82
2019-04-06T15:45:33.726Z,18.85
2019-04-06T15:48:41.163Z,18.85
2019-04-06T15:51:34.708Z,18.84
2019-04-06T15:54:18.871Z,18.78
2019-04-06T15:57:15.588Z,18.71
2019-04-06T15:59:49.961Z,18.63
2019-04-06T16:02:26.943Z,18.49
2019-04-06T16:05:13.165Z,18.52
2019-04-06T16:07:51.858Z,18.36
2019-04-06T16:10:34.702Z,18.45
2019-04-06T16:13:16.052Z,18.48
2019-04-06T16:15:53.769Z,18.48
2019-04-06T16:18:40.136Z,18.40
2019-04-06T16:21:24.629Z,18.31
2019-04-06T16:24:11.244Z,18.40
2019-04-06T16:26:48.384Z,18.36
2019-04-06T16:29:26.985Z,18.43
2019-04-06T16:32:13.957Z,18.39
2019-04-06T16:35:02.273Z,18.25
2019-04-06T16:37:37.666Z,18.22
2019-04-06T16:40:15.029Z,18.35
2019-04-06T16:43:01.252Z,18.23
2019-04-06T16:45:41.167Z,18.21
2019-04-06T16:48:22.525Z,18.38
2019-04-06T16:51:08.456Z,18.38
2019-04-06T16:53:50.017Z,18.34
2019-04-06T16:56:35.649Z,18.22
2019-04-06T16:59:14.557Z,18.01
2019-04-06T17:01:53.664Z,18.01
2019-04-06T17:04:35.178Z,18.10
2019-04-06T17:07:09.988Z,18.00
2019-04-06T17:09:51.895Z,17.95
2019-04-06T17:12:38.258Z,17.98
2019-04-06T17:15:22.118Z,17.86
2019-04-06T17:18:03.731Z,17.81
2019-04-06T17:20:46.121Z,17.81
2019-04-06T17:23:22.805Z,17.70
2019-04-06T17:26:01.748Z,17.70
2019-04-06T17:28:48.182Z,17.66
2019-04-06T17:31:33.489Z,17.60
2019-04-06T17:34:11.128Z,17.57
2019-04-06T17:36:47.143Z,17.43
2019-04-06T17:39:49.873Z,17.58
2019-04-06T17:42:36.321Z,17.62
2019-04-06T17:45:18.558Z,17.58
2019-04-06T17:48:05.392Z,17.54
2019-04-06T17:50:52.022Z,17.44
2019-04-06T17:53:35.825Z,17.30
2019-04-06T17:56:29.629Z,17.26
2019-04-06T17:59:26.920Z,17.13
2019-04-06T18:02:13.211Z,17.03
2019-04-06T18:04:51.852Z,16.80
2019-04-06T18:07:39.590Z,16.65
2019-04-06T18:10:17.647Z,16.51
2019-04-06T18:13:04.443Z,16.30
2019-04-06T18:15:33.582Z,16.19
2019-04-06T18:18:02.442Z,16.06
2019-04-06T18:20:39.730Z,15.94
2019-04-06T18:23:12.399Z,15.86
2019-04-06T18:25:44.341Z,15.70
2019-04-06T18:28:15.004Z,15.50
2019-04-06T18:30:47.097Z,15.39
2019-04-06T18:33:23.880Z,15.05
2019-04-06T18:35:56.557Z,14.93
2019-04-06T18:38:35.415Z,14.87
2019-04-06T18:41:10.210Z,14.83
2019-04-06T18:43:41.664Z,14.52
2019-04-06T18:46:17.202Z,14.48
2019-04-06T18:48:48.475Z,14.35
2019-04-06T18:51:22.289Z,14.25
2019-04-06T18:53:55.353Z,14.27
2019-04-06T18:56:24.768Z,14.19
2019-04-06T18:59:31.350Z,14.00
2019-04-06T19:02:03.452Z,13.97
2019-04-06T19:04:36.752Z,13.74
2019-04-06T19:07:06.767Z,13.78
2019-04-06T19:09:38.277Z,13.75
2019-04-06T19:12:12.479Z,13.75
2019-04-06T19:14:42.913Z,13.72
2019-04-06T19:17:13.398Z,13.66
2019-04-06T19:19:45.611Z,13.69
2019-04-06T19:22:17.691Z,13.57
2019-04-06T19:24:52.123Z,13.42
2019-04-06T19:27:32.151Z,13.36
2019-04-06T19:30:01.276Z,13.43
2019-04-06T19:32:48.291Z,13.20
2019-04-06T19:35:24.626Z,13.37
2019-04-06T19:37:54.400Z,13.48
2019-04-06T19:40:25.920Z,13.40
2019-04-06T19:42:57.832Z,13.39
2019-04-06T19:45:31.220Z,13.34
2019-04-06T19:48:07.475Z,13.34
2019-04-06T19:50:39.380Z,13.26
2019-04-06T19:53:12.783Z,13.27
2019-04-06T19:55:47.993Z,13.26
2019-04-06T19:58:23.107Z,13.16
2019-04-06T20:00:57.557Z,13.11
2019-04-06T20:03:35.133Z,13.27
2019-04-06T20:06:02.735Z,13.46
2019-04-06T20:08:31.883Z,13.56
2019-04-06T20:11:02.113Z,13.74
2019-04-06T20:13:31.451Z,14.02
2019-04-06T20:16:00.840Z,14.26
2019-04-06T20:18:30.398Z,14.45
2019-04-06T20:21:20.728Z,14.59
2019-04-06T20:23:55.212Z,14.65
2019-04-06T20:26:24.273Z,14.80
2019-04-06T20:28:57.023Z,14.86
2019-04-06T20:31:30.711Z,14.93
2019-04-06T20:34:16.354Z,14.91
2019-04-06T20:36:51.249Z,15.00
2019-04-06T20:39:23.924Z,15.01
2019-04-06T20:41:54.984Z,15.09
2019-04-06T20:44:27.804Z,15.13
2019-04-06T20:46:56.840Z,14.94
2019-04-06T20:49:28.081Z,15.04
2019-04-06T20:51:59.055Z,14.98
2019-04-06T20:54:29.726Z,15.08
2019-04-06T20:57:02.346Z,15.07
2019-04-06T20:59:37.018Z,15.06
2019-04-06T21:02:06.065Z,14.99
2019-04-06T21:04:51.666Z,15.08
2019-04-06T21:07:23.257Z,15.07
2019-04-06T21:09:55.197Z,15.10
2019-04-06T21:12:30.831Z,15.10
2019-04-06T21:15:01.157Z,15.18
2019-04-06T21:17:31.605Z,15.15
2019-04-06T21:20:07.365Z,15.14
2019-04-06T21:22:40.070Z,15.11
2019-04-06T21:25:12.838Z,15.15
2019-04-06T21:27:44.123Z,15.14
2019-04-06T21:30:18.099Z,15.08
2019-04-06T21:32:53.569Z,15.05
2019-04-06T21:35:27.074Z,15.10
2019-04-06T21:37:56.378Z,14.95
2019-04-06T21:40:27.297Z,14.88
2019-04-06T21:42:58.905Z,14.79
2019-04-06T21:45:30.957Z,14.79
2019-04-06T21:48:00.732Z,14.81
2019-04-06T21:50:30.863Z,14.86
2019-04-06T21:53:01.576Z,14.81
2019-04-06T21:55:35.644Z,14.77
2019-04-06T21:58:08.520Z,14.77
2019-04-06T22:00:48.496Z,14.59
2019-04-06T22:03:21.026Z,14.62
2019-04-06T22:05:53.179Z,14.59
2019-04-06T22:08:24.896Z,14.58
2019-04-06T22:11:00.475Z,14.57
2019-04-06T22:13:33.786Z,14.53
2019-04-06T22:16:11.723Z,14.48
2019-04-06T22:19:05.710Z,14.49
2019-04-06T22:21:41.335Z,14.46
2019-04-06T22:24:12.879Z,14.42
2019-04-06T22:26:46.224Z,14.35
2019-04-06T22:32:13.081Z,14.23
2019-04-06T22:34:43.990Z,14.20
2019-04-06T22:37:18.482Z,14.18
2019-04-06T22:39:49.887Z,14.12
2019-04-06T22:42:28.823Z,14.10
2019-04-06T22:45:05.307Z,14.12
2019-04-06T22:47:38.479Z,14.13
2019-04-06T22:53:08.734Z,14.00
2019-04-06T22:55:44.819Z,14.00
2019-04-06T22:58:32.605Z,13.95
2019-04-06T23:01:05.470Z,13.88
2019-04-06T23:04:14.462Z,13.80
2019-04-06T23:07:13.973Z,13.76
2019-04-06T23:09:45.140Z,13.71
2019-04-06T23:12:21.172Z,13.77
2019-04-06T23:15:02.347Z,13.68
2019-04-06T23:17:34.489Z,13.60
2019-04-06T23:20:12.679Z,13.61
2019-04-06T23:22:53.815Z,13.57
2019-04-06T23:25:32.338Z,13.52
2019-04-06T23:28:08.327Z,13.55
2019-04-06T23:30:40.875Z,13.52
2019-04-06T23:33:15.954Z,13.47
2019-04-06T23:35:49.629Z,13.40
2019-04-06T23:38:20.308Z,13.26
2019-04-06T23:40:50.312Z,13.24
2019-04-06T23:43:34.075Z,13.31
2019-04-06T23:46:09.837Z,13.38
2019-04-06T23:48:44.440Z,13.28
2019-04-06T23:51:25.671Z,13.31
2019-04-06T23:54:01.942Z,13.21
2019-04-06T23:56:35.206Z,13.17
2019-04-06T23:59:07.465Z,13.20
